Time;durP1;ratioP1;P1;durP2;ratioP2;P2;SDS_P1;SDS_P2;PMS_P1;PMS_P2;Temp;Humidity;BMP_temperature;BMP_pressure;BME280_temperature;BME280_humidity;BME280_pressure;Samples;Min_cycle;Max_cycle;Signal;HPM_P1;HPM_P2
2022/05/17 00:00:28;;;;;;;30.38;17.02;;;14.30;99.90;;;;;;5037209;28;20045;-76
2022/05/17 00:02:54;;;;;;;34.30;18.17;;;14.30;99.90;;;;;;5028804;28;20033;-76
2022/05/17 00:05:21;;;;;;;34.80;18.17;;;14.20;99.90;;;;;;5032464;28;20036;-74
2022/05/17 00:07:47;;;;;;;30.55;17.52;;;14.20;99.90;;;;;;5019719;28;20045;-76
2022/05/17 00:10:13;;;;;;;32.78;17.27;;;14.20;99.90;;;;;;4999108;28;20037;-76
2022/05/17 00:12:39;;;;;;;26.67;16.20;;;14.10;99.90;;;;;;5030625;28;20044;-77
2022/05/17 00:15:06;;;;;;;34.45;16.63;;;14.10;99.90;;;;;;5018580;28;20072;-76
2022/05/17 00:17:32;;;;;;;27.00;16.73;;;14.10;99.90;;;;;;5024795;28;20040;-76
2022/05/17 00:19:57;;;;;;;32.55;18.10;;;14.10;99.90;;;;;;5019902;28;20058;-76
2022/05/17 00:22:24;;;;;;;24.98;16.65;;;14.10;99.90;;;;;;5046137;28;20590;-75
2022/05/17 00:24:49;;;;;;;34.22;16.67;;;14.00;99.90;;;;;;5046120;28;20037;-76
2022/05/17 00:27:15;;;;;;;33.47;16.80;;;14.00;99.90;;;;;;5023228;28;20048;-76
2022/05/17 00:29:41;;;;;;;33.50;17.25;;;14.00;99.90;;;;;;5051535;28;20041;-76
2022/05/17 00:32:07;;;;;;;30.25;16.13;;;14.00;99.90;;;;;;5012665;28;20177;-76
2022/05/17 00:34:33;;;;;;;29.33;16.58;;;14.00;99.90;;;;;;5034945;28;20040;-76
2022/05/17 00:36:58;;;;;;;33.10;16.85;;;13.90;99.90;;;;;;5023015;28;20037;-76
2022/05/17 00:39:24;;;;;;;25.45;15.15;;;13.90;99.90;;;;;;5041514;28;20043;-76
2022/05/17 00:41:50;;;;;;;25.92;16.05;;;13.90;99.90;;;;;;5037875;28;20045;-76
2022/05/17 00:47:39;;;;;;;26.15;15.80;;;13.90;99.90;;;;;;5077128;28;20536;-76
2022/05/17 00:50:21;;;;;;;28.02;16.17;;;13.90;99.90;;;;;;5053824;28;20083;-76
2022/05/17 00:52:53;;;;;;;28.98;15.95;;;13.90;99.90;;;;;;5025817;28;20033;-76
2022/05/17 00:55:22;;;;;;;26.77;15.73;;;13.90;99.90;;;;;;5053610;28;20049;-76
2022/05/17 00:57:58;;;;;;;28.55;15.35;;;13.90;99.90;;;;;;5037094;28;20032;-76
2022/05/17 01:00:25;;;;;;;28.75;15.93;;;13.90;99.90;;;;;;5038869;28;20057;-75
2022/05/17 01:02:59;;;;;;;31.08;17.10;;;13.80;99.90;;;;;;5050104;28;20037;-76
2022/05/17 01:05:26;;;;;;;26.98;15.45;;;13.80;99.90;;;;;;5040803;28;20068;-76
2022/05/17 01:07:55;;;;;;;26.52;16.20;;;13.80;99.90;;;;;;5047608;28;20033;-76
2022/05/17 01:10:23;;;;;;;24.67;15.25;;;13.80;99.90;;;;;;5045234;28;20029;-76
2022/05/17 01:14:57;;;;;;;29.35;16.02;;;13.80;99.90;;;;;;5048367;28;20037;-76
2022/05/17 01:15:36;;;;;;;31.10;15.63;;;13.80;99.90;;;;;;5031576;28;20052;-76
2022/05/17 01:18:04;;;;;;;28.17;14.82;;;13.70;99.90;;;;;;5037494;28;20577;-76
2022/05/17 01:20:30;;;;;;;27.98;15.48;;;13.70;99.90;;;;;;5019710;28;20560;-76
2022/05/17 01:22:56;;;;;;;29.33;15.15;;;13.70;99.90;;;;;;5015555;28;20045;-76
2022/05/17 01:25:22;;;;;;;26.65;15.00;;;13.60;99.90;;;;;;5056981;28;20036;-76
2022/05/17 01:28:23;;;;;;;22.23;14.23;;;13.60;99.90;;;;;;5050865;28;20510;-76
2022/05/17 01:30:49;;;;;;;30.80;14.70;;;13.60;99.90;;;;;;5046933;28;20079;-77
2022/05/17 01:33:16;;;;;;;30.05;14.45;;;13.60;99.90;;;;;;5017161;28;20063;-76
2022/05/17 01:35:42;;;;;;;25.30;14.50;;;13.60;99.90;;;;;;5047397;28;20056;-76
2022/05/17 01:38:08;;;;;;;26.00;13.45;;;13.60;99.90;;;;;;5020157;28;20036;-76
2022/05/17 01:40:34;;;;;;;22.65;12.90;;;13.50;99.90;;;;;;5034598;28;20037;-76
2022/05/17 01:43:00;;;;;;;25.65;14.43;;;13.50;99.90;;;;;;5036148;28;20059;-76
2022/05/17 01:45:26;;;;;;;24.85;13.65;;;13.50;99.90;;;;;;5037340;28;20738;-76
2022/05/17 01:47:52;;;;;;;27.05;14.75;;;13.50;99.90;;;;;;5018970;28;20132;-76
2022/05/17 01:50:17;;;;;;;27.48;14.23;;;13.50;99.90;;;;;;5040016;28;20032;-76
2022/05/17 01:52:44;;;;;;;26.00;13.57;;;13.40;99.90;;;;;;5038613;28;20041;-76
2022/05/17 01:55:10;;;;;;;25.00;13.48;;;13.40;99.90;;;;;;5040107;28;20033;-76
2022/05/17 01:57:36;;;;;;;24.02;13.43;;;13.10;99.90;;;;;;5040153;28;20049;-76
2022/05/17 02:00:04;;;;;;;29.88;13.40;;;13.40;99.90;;;;;;5035452;28;20043;-77
2022/05/17 02:02:31;;;;;;;27.08;14.73;;;13.40;99.90;;;;;;5032576;28;20036;-76
2022/05/17 02:04:57;;;;;;;24.02;12.70;;;13.30;99.90;;;;;;5023097;28;20051;-76
2022/05/17 02:07:23;;;;;;;26.40;14.15;;;13.40;99.90;;;;;;5038989;28;20430;-77
2022/05/17 02:09:48;;;;;;;20.90;13.80;;;13.30;99.90;;;;;;5036596;28;20497;-77
2022/05/17 02:12:14;;;;;;;22.58;13.30;;;13.30;99.90;;;;;;5035254;28;20041;-76
2022/05/17 02:14:40;;;;;;;27.58;14.02;;;13.30;99.90;;;;;;5036288;28;20409;-76
2022/05/17 02:17:06;;;;;;;36.65;14.52;;;13.30;99.90;;;;;;5038849;28;20844;-76
2022/05/17 02:19:32;;;;;;;33.88;13.38;;;13.20;99.90;;;;;;5029408;28;20076;-76
2022/05/17 02:21:58;;;;;;;30.90;14.00;;;13.20;99.90;;;;;;5069496;28;20037;-76
2022/05/17 02:24:24;;;;;;;30.77;13.07;;;13.20;99.90;;;;;;5034531;28;20045;-77
2022/05/17 02:26:50;;;;;;;27.05;12.70;;;13.20;99.90;;;;;;5029937;28;20446;-77
2022/05/17 02:29:15;;;;;;;29.80;14.45;;;13.20;99.90;;;;;;5035273;28;20050;-77
2022/05/17 02:31:41;;;;;;;27.67;13.27;;;13.10;99.90;;;;;;5049012;28;20447;-77
2022/05/17 02:34:07;;;;;;;22.30;13.77;;;13.10;99.90;;;;;;5035040;28;20033;-77
2022/05/17 02:36:33;;;;;;;22.77;13.70;;;13.10;99.90;;;;;;5037620;28;20040;-77
2022/05/17 02:38:59;;;;;;;21.65;12.90;;;13.10;99.90;;;;;;5036534;28;20044;-77
2022/05/17 02:41:24;;;;;;;24.75;12.50;;;13.00;99.90;;;;;;5016163;28;20048;-77
2022/05/17 02:43:50;;;;;;;28.88;13.80;;;13.00;99.90;;;;;;5049197;28;20116;-76
2022/05/17 02:46:16;;;;;;;28.70;14.45;;;13.00;99.90;;;;;;5052602;28;20497;-77
2022/05/17 02:48:42;;;;;;;30.08;14.68;;;13.00;99.90;;;;;;5051723;28;20055;-77
2022/05/17 02:51:13;;;;;;;25.30;13.77;;;13.00;99.90;;;;;;5033692;28;20041;-77
2022/05/17 02:53:39;;;;;;;22.10;12.68;;;13.00;99.90;;;;;;5042241;28;20033;-77
2022/05/17 02:56:06;;;;;;;24.02;12.38;;;13.00;99.90;;;;;;5050640;28;20098;-76
2022/05/17 02:58:31;;;;;;;29.23;13.50;;;12.90;99.90;;;;;;5051332;28;20037;-77
2022/05/17 03:00:57;;;;;;;27.75;13.38;;;12.90;99.90;;;;;;5024795;28;20038;-77
2022/05/17 03:03:23;;;;;;;26.10;13.20;;;12.90;99.90;;;;;;5036366;28;20045;-76
2022/05/17 03:05:49;;;;;;;27.35;12.27;;;12.90;99.90;;;;;;5035842;28;20044;-76
2022/05/17 03:08:15;;;;;;;33.47;13.85;;;12.80;99.90;;;;;;5039743;28;20089;-76
2022/05/17 03:10:41;;;;;;;27.40;13.70;;;12.80;99.90;;;;;;5051696;28;20432;-76
2022/05/17 03:13:11;;;;;;;24.80;13.25;;;12.80;99.90;;;;;;5037025;28;20439;-77
2022/05/17 03:15:37;;;;;;;36.80;13.88;;;12.80;99.90;;;;;;5044364;28;20033;-76
2022/05/17 03:18:03;;;;;;;27.63;12.95;;;12.80;99.90;;;;;;5037048;28;20080;-76
2022/05/17 03:20:29;;;;;;;31.02;13.30;;;12.80;99.90;;;;;;5035784;28;20341;-77
2022/05/17 03:22:55;;;;;;;25.02;13.75;;;12.70;99.90;;;;;;5037235;28;20041;-77
2022/05/17 03:25:21;;;;;;;26.48;13.25;;;12.70;99.90;;;;;;5022700;28;20044;-77
2022/05/17 03:27:46;;;;;;;27.02;13.25;;;12.70;99.90;;;;;;5050961;28;20091;-76
2022/05/17 03:30:13;;;;;;;25.92;12.73;;;12.70;99.90;;;;;;5021231;28;20147;-77
2022/05/17 03:32:39;;;;;;;26.38;13.07;;;12.60;99.90;;;;;;5032349;28;20049;-77
2022/05/17 03:35:06;;;;;;;23.75;12.63;;;12.60;99.90;;;;;;5051502;28;20110;-76
2022/05/17 03:37:31;;;;;;;23.33;13.00;;;12.60;99.90;;;;;;5000954;28;20063;-76
2022/05/17 03:39:57;;;;;;;22.90;12.75;;;12.60;99.90;;;;;;5038487;28;20071;-77
2022/05/17 03:42:23;;;;;;;30.98;13.50;;;12.50;99.90;;;;;;5034383;28;20040;-77
2022/05/17 03:44:49;;;;;;;37.85;15.57;;;12.60;99.90;;;;;;5017911;28;20124;-78
2022/05/17 03:47:14;;;;;;;26.27;13.13;;;12.50;99.90;;;;;;5047553;28;20091;-77
2022/05/17 03:49:40;;;;;;;25.02;13.55;;;12.50;99.90;;;;;;5036297;28;20040;-77
2022/05/17 03:52:08;;;;;;;29.02;12.82;;;12.50;99.90;;;;;;5034331;28;20511;-77
2022/05/17 03:54:34;;;;;;;26.88;13.30;;;12.50;99.90;;;;;;5035837;28;20762;-76
2022/05/17 03:57:06;;;;;;;27.20;12.65;;;12.50;99.90;;;;;;5051564;28;20040;-76
2022/05/17 03:59:33;;;;;;;;;;;12.50;99.90;;;;;;5039027;28;20044;-77
2022/05/17 04:01:59;;;;;;;30.55;12.73;;;12.50;99.90;;;;;;5048918;28;19925;-77
2022/05/17 04:04:26;;;;;;;28.55;13.73;;;12.50;99.90;;;;;;5034898;28;20498;-77
2022/05/17 04:06:51;;;;;;;27.33;13.02;;;12.50;99.90;;;;;;5018878;28;20048;-78
2022/05/17 04:09:17;;;;;;;24.55;12.95;;;12.50;99.90;;;;;;5031343;28;20037;-77
2022/05/17 04:11:43;;;;;;;30.85;12.18;;;12.50;99.90;;;;;;5034455;28;20091;-76
2022/05/17 04:14:09;;;;;;;34.08;13.77;;;12.50;99.90;;;;;;5037809;28;20033;-77
2022/05/17 04:16:37;;;;;;;28.02;11.75;;;12.50;99.90;;;;;;5067793;28;20070;-77
2022/05/17 04:19:04;;;;;;;26.42;13.50;;;12.50;99.90;;;;;;5048924;28;20043;-77
2022/05/17 04:21:31;;;;;;;25.63;12.75;;;12.50;99.90;;;;;;5027791;28;20038;-77
2022/05/17 04:23:57;;;;;;;25.80;12.38;;;12.60;99.90;;;;;;5048997;28;20449;-77
2022/05/17 04:26:24;;;;;;;32.72;13.05;;;12.60;99.90;;;;;;5067064;28;20115;-76
2022/05/17 04:28:50;;;;;;;29.45;13.55;;;12.60;99.90;;;;;;5049949;28;20093;-76
2022/05/17 04:31:16;;;;;;;29.52;12.57;;;12.60;99.90;;;;;;5054158;28;20114;-76
2022/05/17 04:33:43;;;;;;;27.65;13.98;;;12.60;99.90;;;;;;5018390;28;20165;-77
2022/05/17 04:36:09;;;;;;;32.10;12.85;;;12.60;99.90;;;;;;5052651;28;20486;-76
2022/05/17 04:38:36;;;;;;;25.38;12.50;;;12.70;99.90;;;;;;5049549;28;20032;-76
2022/05/17 04:41:02;;;;;;;22.55;12.52;;;12.70;99.90;;;;;;5048700;28;20105;-76
2022/05/17 04:43:29;;;;;;;24.55;13.38;;;12.70;99.90;;;;;;5034551;28;20045;-77
2022/05/17 04:45:55;;;;;;;26.42;13.38;;;12.70;99.90;;;;;;5051401;28;20044;-76
2022/05/17 04:48:24;;;;;;;32.22;12.70;;;12.80;99.90;;;;;;5050268;28;20083;-76
2022/05/17 04:50:50;;;;;;;24.95;12.65;;;12.80;99.90;;;;;;5033577;28;20048;-76
2022/05/17 04:53:16;;;;;;;27.05;13.02;;;12.80;99.90;;;;;;5046919;28;20037;-76
2022/05/17 04:55:42;;;;;;;30.02;13.55;;;12.90;99.90;;;;;;5038040;28;20041;-76
2022/05/17 04:58:08;;;;;;;27.35;12.38;;;12.80;99.90;;;;;;5014552;28;20402;-77
2022/05/17 05:00:33;;;;;;;22.67;11.52;;;12.90;99.90;;;;;;5049677;28;20051;-76
2022/05/17 05:02:59;;;;;;;27.85;12.75;;;12.90;99.90;;;;;;5052396;28;20554;-76
2022/05/17 05:05:25;;;;;;;31.05;13.15;;;13.00;99.90;;;;;;5034548;28;20501;-76
2022/05/17 05:07:52;;;;;;;21.83;12.38;;;13.00;99.90;;;;;;5065315;28;20037;-76
2022/05/17 05:10:18;;;;;;;29.33;12.20;;;13.00;99.90;;;;;;5025329;28;20120;-76
2022/05/17 05:12:44;;;;;;;23.58;12.07;;;13.00;99.90;;;;;;5033000;28;20040;-76
2022/05/17 05:15:11;;;;;;;23.00;12.00;;;13.00;99.90;;;;;;5051154;28;20208;-76
2022/05/17 05:17:37;;;;;;;23.90;11.52;;;13.10;99.90;;;;;;5021121;28;20044;-77
2022/05/17 05:20:05;;;;;;;24.58;12.60;;;13.10;99.90;;;;;;5052958;28;20078;-77
2022/05/17 05:22:32;;;;;;;26.30;11.88;;;13.10;99.90;;;;;;5037401;28;20044;-76
2022/05/17 05:24:58;;;;;;;31.25;12.32;;;13.20;99.90;;;;;;5053859;28;20041;-77
2022/05/17 05:27:24;;;;;;;24.63;12.30;;;13.20;99.90;;;;;;5019588;28;20057;-77
2022/05/17 05:29:50;;;;;;;23.48;11.63;;;13.20;99.90;;;;;;5053004;28;20043;-77
2022/05/17 05:32:16;;;;;;;21.40;11.73;;;13.30;99.90;;;;;;5056425;28;20037;-76
2022/05/17 05:34:41;;;;;;;25.02;11.70;;;13.30;99.90;;;;;;5042299;28;20048;-77
2022/05/17 05:37:08;;;;;;;25.08;12.13;;;13.40;99.90;;;;;;5065136;28;20041;-77
2022/05/17 05:39:34;;;;;;;22.67;11.65;;;13.40;99.90;;;;;;5029984;28;20563;-76
2022/05/17 05:42:00;;;;;;;23.75;11.35;;;13.40;99.90;;;;;;5035107;28;20087;-76
2022/05/17 05:44:25;;;;;;;21.83;11.82;;;13.50;99.90;;;;;;5039926;28;20485;-76
2022/05/17 05:46:51;;;;;;;23.25;11.40;;;13.60;99.90;;;;;;5034378;28;20643;-77
2022/05/17 05:49:17;;;;;;;22.70;10.85;;;13.60;99.90;;;;;;5029696;28;20482;-77
2022/05/17 05:51:45;;;;;;;19.80;10.07;;;13.60;99.90;;;;;;5049213;28;20040;-76
2022/05/17 05:54:11;;;;;;;25.30;11.75;;;13.70;99.90;;;;;;5052299;28;20509;-77
2022/05/17 05:56:38;;;;;;;23.08;12.45;;;13.80;99.90;;;;;;5033320;28;20056;-77
2022/05/17 05:59:04;;;;;;;23.27;10.43;;;13.90;99.90;;;;;;5035175;28;20348;-76
2022/05/17 06:01:29;;;;;;;23.55;11.13;;;14.00;99.90;;;;;;5003944;28;20037;-76
2022/05/17 06:03:58;;;;;;;27.02;11.40;;;14.10;99.90;;;;;;5034098;28;20379;-77
2022/05/17 06:06:24;;;;;;;18.23;11.68;;;14.20;99.90;;;;;;5018009;28;20080;-78
2022/05/17 06:08:50;;;;;;;19.27;9.65;;;14.20;99.90;;;;;;5054123;28;20491;-77
2022/05/17 06:11:16;;;;;;;17.33;10.50;;;14.30;99.90;;;;;;5033647;28;20037;-76
2022/05/17 06:13:42;;;;;;;23.17;9.63;;;14.40;99.90;;;;;;5053593;28;20546;-77
2022/05/17 06:16:08;;;;;;;17.55;9.63;;;14.50;99.90;;;;;;5036585;28;20137;-77
2022/05/17 06:18:34;;;;;;;24.50;10.98;;;14.50;99.90;;;;;;5033017;28;20045;-77
2022/05/17 06:21:02;;;;;;;21.27;10.55;;;14.60;99.90;;;;;;5036177;28;20044;-77
2022/05/17 06:23:28;;;;;;;22.00;10.30;;;14.60;99.90;;;;;;5032619;28;20125;-77
2022/05/17 06:25:54;;;;;;;20.00;9.60;;;14.60;99.90;;;;;;5053100;28;20534;-77
2022/05/17 06:28:20;;;;;;;18.40;8.82;;;14.70;99.90;;;;;;5045404;28;20057;-77
2022/05/17 06:30:45;;;;;;;19.35;10.00;;;14.70;99.90;;;;;;5052114;28;20044;-77
2022/05/17 06:33:13;;;;;;;23.17;10.38;;;14.70;99.90;;;;;;5023538;28;20049;-77
2022/05/17 06:35:48;;;;;;;25.60;10.48;;;14.80;99.90;;;;;;5017977;28;20398;-77
2022/05/17 06:38:15;;;;;;;20.05;10.05;;;14.80;99.90;;;;;;5023742;28;20049;-78
2022/05/17 06:40:41;;;;;;;14.30;9.20;;;14.90;99.90;;;;;;5046541;28;20417;-77
2022/05/17 06:43:07;;;;;;;30.92;11.32;;;14.90;99.90;;;;;;5043157;28;20048;-77
2022/05/17 06:45:33;;;;;;;19.17;10.20;;;15.00;99.90;;;;;;5043930;28;20049;-77
2022/05/17 06:48:02;;;;;;;18.13;9.90;;;15.00;99.90;;;;;;5049957;28;20052;-77
2022/05/17 06:50:28;;;;;;;17.60;8.45;;;15.10;99.90;;;;;;5050209;28;20037;-76
2022/05/17 06:52:54;;;;;;;24.45;10.15;;;15.20;99.90;;;;;;5019428;28;20045;-77
2022/05/17 06:55:22;;;;;;;20.35;9.82;;;15.20;99.90;;;;;;5033426;28;20406;-77
2022/05/17 06:57:51;;;;;;;18.25;9.63;;;15.20;99.90;;;;;;5016500;28;20128;-77
2022/05/17 07:00:19;;;;;;;19.40;9.57;;;15.30;99.90;;;;;;5016826;28;20045;-77
2022/05/17 07:02:45;;;;;;;19.42;9.02;;;15.40;99.90;;;;;;5003444;28;20045;-76
2022/05/17 07:05:11;;;;;;;16.23;8.63;;;15.40;99.90;;;;;;5029582;28;20043;-76
2022/05/17 07:07:38;;;;;;;21.13;9.13;;;15.60;99.90;;;;;;5041053;28;20437;-76
2022/05/17 07:15:33;;;;;;;17.17;9.23;;;15.90;99.90;;;;;;5054276;28;20060;-77
2022/05/17 07:18:02;;;;;;;22.30;8.70;;;16.00;99.90;;;;;;5033507;28;20045;-76
2022/05/17 07:20:33;;;;;;;17.92;8.77;;;16.10;99.90;;;;;;5045546;28;20128;-77
2022/05/17 07:22:59;;;;;;;15.85;8.10;;;16.10;99.90;;;;;;5034400;28;20128;-77
2022/05/17 07:25:25;;;;;;;20.58;10.45;;;16.20;99.90;;;;;;5047855;28;20052;-76
2022/05/17 07:27:51;;;;;;;20.13;8.13;;;16.20;99.90;;;;;;5003278;28;20052;-76
2022/05/17 07:30:17;;;;;;;14.52;7.38;;;16.30;99.90;;;;;;5030597;28;20049;-76
2022/05/17 07:32:43;;;;;;;16.92;7.25;;;16.40;99.90;;;;;;5017376;28;20041;-76
2022/05/17 07:35:15;;;;;;;13.68;7.90;;;16.40;99.90;;;;;;5019323;28;20084;-76
2022/05/17 07:37:41;;;;;;;13.68;7.57;;;16.40;99.90;;;;;;5032382;28;20128;-76
2022/05/17 07:40:08;;;;;;;14.60;7.13;;;16.60;99.90;;;;;;4997951;28;20132;-76
2022/05/17 07:42:34;;;;;;;19.27;7.85;;;16.80;99.90;;;;;;5044614;28;20576;-76
2022/05/17 07:44:59;;;;;;;19.70;7.30;;;16.90;99.90;;;;;;5011572;28;20132;-76
2022/05/17 07:47:25;;;;;;;16.35;7.68;;;17.00;99.90;;;;;;5012258;28;20045;-76
2022/05/17 07:49:51;;;;;;;14.25;6.60;;;17.00;99.90;;;;;;5023929;28;20033;-76
2022/05/17 07:52:17;;;;;;;13.77;8.30;;;17.10;99.90;;;;;;5010972;28;20487;-76
2022/05/17 07:54:43;;;;;;;15.55;7.40;;;17.10;99.90;;;;;;5015418;28;20550;-76
2022/05/17 07:57:09;;;;;;;13.82;6.75;;;17.20;99.90;;;;;;5012314;28;20063;-76
2022/05/17 07:59:35;;;;;;;17.60;7.68;;;17.40;99.90;;;;;;5031907;28;20076;-76
2022/05/17 08:02:01;;;;;;;14.15;7.95;;;17.60;99.90;;;;;;5049222;28;20080;-76
2022/05/17 08:04:29;;;;;;;12.45;7.55;;;17.70;99.90;;;;;;5014271;28;20447;-76
2022/05/17 08:06:56;;;;;;;17.20;8.20;;;17.70;99.90;;;;;;5052440;28;20041;-76
2022/05/17 08:09:23;;;;;;;16.20;8.23;;;17.80;99.90;;;;;;5048661;28;20041;-76
2022/05/17 08:11:50;;;;;;;17.27;8.20;;;17.80;99.90;;;;;;5029073;28;20124;-76
2022/05/17 08:14:16;;;;;;;21.15;7.68;;;17.90;99.90;;;;;;4996041;28;20542;-76
2022/05/17 08:16:42;;;;;;;13.98;7.20;;;18.10;99.90;;;;;;5039736;28;20044;-76
2022/05/17 08:19:09;;;;;;;11.90;6.72;;;18.20;99.90;;;;;;5048921;28;20037;-76
2022/05/17 08:21:36;;;;;;;14.40;6.80;;;18.30;99.90;;;;;;5031836;28;20508;-76
2022/05/17 08:24:02;;;;;;;13.68;6.75;;;18.40;99.90;;;;;;5032494;28;20405;-76
2022/05/17 08:29:13;;;;;;;13.25;6.85;;;18.50;99.90;;;;;;5059141;28;20045;-76
2022/05/17 08:31:41;;;;;;;14.30;7.22;;;18.50;99.90;;;;;;5039949;28;20056;-76
2022/05/17 08:34:10;;;;;;;15.15;6.57;;;18.70;99.90;;;;;;5015221;28;20133;-76
2022/05/17 08:36:36;;;;;;;14.52;7.03;;;18.80;99.90;;;;;;5005746;28;20099;-76
2022/05/17 08:39:02;;;;;;;18.60;7.18;;;18.90;99.90;;;;;;5044152;28;20037;-76
2022/05/17 08:41:31;;;;;;;12.98;7.00;;;19.00;99.90;;;;;;5031940;28;20032;-76
2022/05/17 08:44:01;;;;;;;12.68;6.07;;;19.00;99.90;;;;;;5048353;28;20044;-76
2022/05/17 08:46:34;;;;;;;10.88;6.22;;;19.10;99.90;;;;;;5048034;28;20385;-75
2022/05/17 08:49:11;;;;;;;14.60;7.22;;;19.20;99.90;;;;;;5050031;28;20119;-76
2022/05/17 08:51:44;;;;;;;11.55;6.10;;;19.30;99.90;;;;;;5031737;28;20403;-76
2022/05/17 08:54:44;;;;;;;13.43;7.68;;;19.40;99.90;;;;;;5030235;28;20037;-76
2022/05/17 08:57:33;;;;;;;11.90;6.07;;;19.60;99.90;;;;;;5051407;28;20506;-76
2022/05/17 09:00:09;;;;;;;12.15;4.65;;;19.70;99.90;;;;;;5054749;28;20057;-76
2022/05/17 09:02:44;;;;;;;8.85;4.47;;;19.70;99.90;;;;;;5052147;28;20048;-76
2022/05/17 09:05:54;;;;;;;12.88;5.32;;;19.90;99.90;;;;;;5039148;28;20047;-76
2022/05/17 09:08:57;;;;;;;17.13;6.00;;;19.90;99.90;;;;;;5029418;28;20043;-77
2022/05/17 09:11:43;;;;;;;10.38;5.40;;;20.10;99.90;;;;;;5028254;28;20409;-75
2022/05/17 09:14:59;;;;;;;9.32;5.00;;;20.20;99.90;;;;;;5035608;28;20079;-76
2022/05/17 09:17:28;;;;;;;12.23;5.80;;;20.20;99.90;;;;;;5031352;28;20041;-76
2022/05/17 09:19:55;;;;;;;12.55;6.38;;;20.10;99.90;;;;;;5048521;28;20045;-76
2022/05/17 09:22:24;;;;;;;10.52;5.57;;;20.20;99.90;;;;;;5033128;28;20096;-76
2022/05/17 09:24:57;;;;;;;12.13;5.30;;;20.30;99.90;;;;;;5031464;28;20038;-76
2022/05/17 09:27:37;;;;;;;12.05;5.43;;;20.30;99.90;;;;;;5031264;28;20049;-76
2022/05/17 09:30:13;;;;;;;10.48;4.05;;;20.40;99.90;;;;;;5027495;28;20049;-76
2022/05/17 09:32:44;;;;;;;8.68;4.30;;;20.50;99.90;;;;;;5036836;28;20033;-76
2022/05/17 09:35:10;;;;;;;13.35;4.50;;;20.50;99.90;;;;;;5034806;28;20037;-76
2022/05/17 09:37:42;;;;;;;8.38;3.83;;;20.50;99.90;;;;;;5034171;28;20037;-76
2022/05/17 09:40:14;;;;;;;9.70;3.83;;;20.50;99.90;;;;;;5051079;28;20439;-76
2022/05/17 09:42:51;;;;;;;8.80;3.03;;;20.70;99.90;;;;;;5030996;28;20073;-76
2022/05/17 09:45:21;;;;;;;10.52;4.05;;;20.80;99.90;;;;;;5043455;28;20421;-76
2022/05/17 09:48:02;;;;;;;9.73;3.50;;;20.70;99.90;;;;;;5030489;28;20457;-76
2022/05/17 09:53:15;;;;;;;7.32;2.88;;;20.80;99.90;;;;;;5047591;28;20076;-76
2022/05/17 09:55:47;;;;;;;8.48;2.78;;;20.90;99.90;;;;;;5014689;28;20042;-76
2022/05/17 09:58:33;;;;;;;6.20;2.50;;;21.00;99.90;;;;;;5044537;28;20041;-77
2022/05/17 10:01:01;;;;;;;8.30;2.67;;;21.20;99.90;;;;;;5043775;28;20079;-76
2022/05/17 10:04:11;;;;;;;9.27;3.35;;;21.30;99.90;;;;;;5017853;28;20756;-76
2022/05/17 10:06:43;;;;;;;7.68;2.40;;;21.00;99.90;;;;;;5034002;28;20487;-75
2022/05/17 10:09:49;;;;;;;10.32;3.63;;;20.80;99.90;;;;;;5050228;28;20534;-76
2022/05/17 10:12:33;;;;;;;9.05;3.33;;;21.00;99.90;;;;;;5047423;28;20047;-76
2022/05/17 10:15:11;;;;;;;11.00;2.80;;;21.20;98.90;;;;;;5050747;28;20045;-76
2022/05/17 10:17:49;;;;;;;8.25;2.35;;;21.40;99.90;;;;;;5050162;28;20103;-76
2022/05/17 10:20:37;;;;;;;10.85;2.97;;;21.50;99.90;;;;;;5040213;28;20463;-76
2022/05/17 10:23:35;;;;;;;5.82;2.50;;;21.60;96.50;;;;;;5049884;28;20045;-76
2022/05/17 10:26:11;;;;;;;7.63;2.40;;;21.70;97.70;;;;;;5043666;28;20426;-76
2022/05/17 10:29:16;;;;;;;6.50;2.58;;;21.80;98.40;;;;;;5043769;28;20053;-76
2022/05/17 10:31:54;;;;;;;6.40;2.92;;;21.90;96.80;;;;;;5008492;28;20083;-76
2022/05/17 10:34:47;;;;;;;7.68;2.38;;;22.00;97.50;;;;;;5044064;28;20117;-75
2022/05/17 10:37:19;;;;;;;5.28;2.35;;;22.10;98.40;;;;;;5047229;28;20124;-75
2022/05/17 10:40:05;;;;;;;6.85;2.70;;;21.90;96.60;;;;;;5030186;28;20133;-76
2022/05/17 10:42:32;;;;;;;8.38;2.10;;;21.80;96.50;;;;;;5046449;28;20098;-76
2022/05/17 10:44:59;;;;;;;6.18;2.15;;;21.80;96.20;;;;;;5041129;28;20509;-75
2022/05/17 10:47:49;;;;;;;9.00;2.40;;;21.80;96.10;;;;;;5061178;28;20126;-75
2022/05/17 10:51:02;;;;;;;6.20;2.30;;;21.80;92.20;;;;;;5033027;28;20035;-76
2022/05/17 10:53:30;;;;;;;;;;;21.80;97.60;;;;;;5012326;28;20044;-75
2022/05/17 10:56:11;;;;;;;8.50;2.53;;;21.80;93.70;;;;;;5045372;28;19920;-75
2022/05/17 10:58:44;;;;;;;8.15;2.38;;;21.80;95.70;;;;;;5040116;28;20037;-76
2022/05/17 11:01:15;;;;;;;6.32;2.20;;;21.80;95.50;;;;;;5043694;28;20072;-76
2022/05/17 11:04:35;;;;;;;8.88;2.88;;;21.80;96.30;;;;;;5044658;28;20124;-75
2022/05/17 11:07:23;;;;;;;7.47;2.13;;;21.80;97.00;;;;;;5060639;28;20990;-75
2022/05/17 11:09:52;;;;;;;9.07;2.55;;;21.90;96.00;;;;;;5033320;28;20033;-76
2022/05/17 11:12:23;;;;;;;6.65;2.50;;;22.10;95.60;;;;;;5031905;28;20595;-76
2022/05/17 11:14:59;;;;;;;7.97;2.70;;;22.30;94.30;;;;;;5066245;28;20041;-76
2022/05/17 11:17:44;;;;;;;8.70;2.97;;;22.50;94.40;;;;;;5042833;28;20041;-75
2022/05/17 11:20:34;;;;;;;6.57;2.30;;;22.50;94.10;;;;;;5032534;28;20037;-75
2022/05/17 11:23:24;;;;;;;8.45;2.30;;;22.50;92.80;;;;;;5049826;28;20257;-76
2022/05/17 11:26:19;;;;;;;6.60;2.20;;;22.40;93.70;;;;;;5046198;28;20049;-76
2022/05/17 11:29:10;;;;;;;7.63;3.00;;;22.50;93.50;;;;;;5042809;28;20111;-76
2022/05/17 11:31:39;;;;;;;11.43;4.23;;;22.50;95.20;;;;;;5048484;28;20401;-75
2022/05/17 11:34:30;;;;;;;8.65;3.20;;;22.40;95.80;;;;;;5048108;28;20037;-75
2022/05/17 11:37:05;;;;;;;6.65;2.92;;;22.30;96.10;;;;;;5036072;28;20044;-75
2022/05/17 11:39:31;;;;;;;9.73;3.38;;;22.20;96.10;;;;;;5030054;28;20508;-76
2022/05/17 11:42:20;;;;;;;10.10;4.40;;;22.30;95.90;;;;;;5067449;28;20068;-76
2022/05/17 11:44:49;;;;;;;13.48;4.57;;;22.20;97.40;;;;;;5020281;28;20061;-76
2022/05/17 11:47:28;;;;;;;9.45;4.45;;;22.20;97.10;;;;;;5044916;28;20037;-76
2022/05/17 11:50:22;;;;;;;9.32;4.03;;;22.30;97.50;;;;;;5046340;28;20166;-76
2022/05/17 11:53:22;;;;;;;14.20;4.85;;;22.30;96.90;;;;;;5051758;28;20033;-76
2022/05/17 11:56:13;;;;;;;9.95;4.85;;;22.40;97.30;;;;;;5034697;28;20394;-76
2022/05/17 11:58:43;;;;;;;10.40;4.50;;;22.30;98.50;;;;;;5044715;28;20033;-75
2022/05/17 12:01:31;;;;;;;16.92;6.30;;;22.30;97.70;;;;;;5033868;28;20122;-75
2022/05/17 12:03:58;;;;;;;15.30;5.75;;;22.30;99.00;;;;;;5036442;28;20557;-75
2022/05/17 12:06:41;;;;;;;13.20;5.60;;;22.20;99.00;;;;;;5037216;28;20107;-75
2022/05/17 12:09:27;;;;;;;;;;;22.10;99.20;;;;;;5036514;28;20060;-75
2022/05/17 12:12:28;;;;;;;10.60;5.55;;;22.00;99.80;;;;;;5041464;28;19916;-75
2022/05/17 12:15:06;;;;;;;11.48;5.57;;;22.00;99.90;;;;;;5022773;28;20060;-71
2022/05/17 12:17:44;;;;;;;14.57;5.60;;;22.10;99.90;;;;;;5035579;28;21159;-72
2022/05/17 12:20:27;;;;;;;16.55;5.43;;;22.10;98.40;;;;;;5050343;28;20048;-72
2022/05/17 12:23:16;;;;;;;14.13;5.60;;;22.10;99.00;;;;;;5041038;28;20521;-72
2022/05/17 12:26:10;;;;;;;10.63;5.25;;;22.00;98.60;;;;;;5044594;28;20049;-72
2022/05/17 12:28:43;;;;;;;14.00;5.80;;;21.90;99.40;;;;;;5026398;28;20052;-71
2022/05/17 12:31:12;;;;;;;12.88;5.72;;;21.90;99.20;;;;;;5041006;28;20406;-72
2022/05/17 12:33:45;;;;;;;15.75;6.50;;;21.70;99.10;;;;;;5042483;28;20049;-72
2022/05/17 12:36:11;;;;;;;11.65;5.28;;;21.70;98.50;;;;;;5038758;28;20095;-71
2022/05/17 12:44:16;;;;;;;13.30;5.07;;;22.00;98.90;;;;;;5055386;28;20049;-72
2022/05/17 12:46:46;;;;;;;10.25;4.78;;;21.90;98.30;;;;;;5039882;28;20041;-72
2022/05/17 12:49:19;;;;;;;10.55;4.40;;;21.70;98.50;;;;;;5025359;28;20064;-72
2022/05/17 12:51:50;;;;;;;10.63;4.40;;;21.80;99.20;;;;;;5029105;28;20044;-72
2022/05/17 12:54:21;;;;;;;11.75;4.93;;;21.80;98.60;;;;;;5042090;28;20383;-72
2022/05/17 12:56:51;;;;;;;9.20;3.90;;;21.80;98.30;;;;;;5037232;28;20036;-72
2022/05/17 12:59:27;;;;;;;6.95;4.18;;;21.70;98.20;;;;;;5023316;28;20124;-71
2022/05/17 13:01:56;;;;;;;8.63;3.90;;;21.70;98.60;;;;;;5039610;28;20052;-73
2022/05/17 13:04:30;;;;;;;10.85;3.50;;;21.80;98.60;;;;;;5022741;28;20155;-72
2022/05/17 13:07:13;;;;;;;7.57;3.42;;;21.80;97.50;;;;;;5038502;28;20560;-73
2022/05/17 13:10:04;;;;;;;11.15;5.00;;;21.80;98.50;;;;;;5039311;28;20472;-72
2022/05/17 13:12:44;;;;;;;7.70;4.20;;;21.90;99.50;;;;;;5056334;28;20037;-72